createdAt,value
2018-12-21T00:00:36.077Z,9.28
2018-12-21T00:01:36.652Z,9.23
2018-12-21T00:02:36.112Z,9.25
2018-12-21T00:03:36.119Z,9.18
2018-12-21T00:04:36.134Z,9.25
2018-12-21T00:05:36.150Z,9.25
2018-12-21T00:06:36.157Z,9.24
2018-12-21T00:07:36.179Z,9.30
2018-12-21T00:08:36.186Z,9.32
2018-12-21T00:09:36.200Z,9.30
2018-12-21T00:10:36.253Z,9.38
2018-12-21T00:11:36.226Z,9.39
2018-12-21T00:12:36.249Z,9.34
2018-12-21T00:13:36.262Z,9.39
2018-12-21T00:14:36.299Z,9.27
2018-12-21T00:15:36.287Z,9.38
2018-12-21T00:16:36.314Z,9.35
2018-12-21T00:17:36.309Z,9.38
2018-12-21T00:18:36.324Z,9.35
2018-12-21T00:19:36.342Z,9.38
2018-12-21T00:20:36.354Z,9.40
2018-12-21T00:21:36.370Z,9.35
2018-12-21T00:22:36.383Z,9.28
2018-12-21T00:23:36.394Z,9.28
2018-12-21T00:24:36.480Z,9.32
2018-12-21T00:25:36.421Z,9.39
2018-12-21T00:26:36.433Z,9.35
2018-12-21T00:27:36.449Z,9.42
2018-12-21T00:28:36.461Z,9.42
2018-12-21T00:29:36.473Z,9.42
2018-12-21T00:30:36.489Z,9.48
2018-12-21T00:31:36.499Z,9.49
2018-12-21T00:32:36.513Z,9.42
2018-12-21T00:33:36.529Z,9.45
2018-12-21T00:34:36.543Z,9.43
2018-12-21T00:35:36.554Z,9.43
2018-12-21T00:36:36.573Z,9.48
2018-12-21T00:37:36.587Z,9.46
2018-12-21T00:38:36.598Z,9.46
2018-12-21T00:39:36.612Z,9.48
2018-12-21T00:40:36.630Z,9.43
2018-12-21T00:41:36.640Z,9.49
2018-12-21T00:42:36.653Z,9.35
2018-12-21T00:43:36.667Z,9.32
2018-12-21T00:44:36.682Z,9.40
2018-12-21T00:45:36.692Z,9.39
2018-12-21T00:46:36.720Z,9.42
2018-12-21T00:47:36.720Z,9.40
2018-12-21T00:48:36.734Z,9.42
2018-12-21T00:49:36.752Z,9.31
2018-12-21T00:50:36.769Z,9.40
2018-12-21T00:51:36.778Z,9.35
2018-12-21T00:52:36.792Z,9.42
2018-12-21T00:53:36.804Z,9.45
2018-12-21T00:54:36.822Z,9.45
2018-12-21T00:55:36.828Z,9.49
2018-12-21T00:56:36.846Z,9.43
2018-12-21T00:57:36.856Z,9.50
2018-12-21T00:58:36.874Z,9.46
2018-12-21T00:59:36.884Z,9.48
2018-12-21T01:00:36.913Z,9.49
2018-12-21T01:01:36.913Z,9.50
2018-12-21T01:02:36.928Z,9.52
2018-12-21T01:03:36.940Z,9.52
2018-12-21T01:04:36.965Z,9.48
2018-12-21T01:05:36.971Z,9.57
2018-12-21T01:06:36.979Z,9.64
2018-12-21T01:07:37.001Z,9.63
2018-12-21T01:08:37.011Z,9.63
2018-12-21T01:09:37.032Z,9.68
2018-12-21T01:10:37.036Z,9.73
2018-12-21T01:11:37.056Z,9.76
2018-12-21T01:12:37.096Z,9.75
2018-12-21T01:13:37.082Z,9.78
2018-12-21T01:14:37.090Z,9.78
2018-12-21T01:15:37.115Z,9.60
2018-12-21T01:16:37.118Z,9.68
2018-12-21T01:17:37.133Z,9.67
2018-12-21T01:18:37.167Z,9.67
2018-12-21T01:19:37.162Z,9.75
2018-12-21T01:20:37.178Z,9.71
2018-12-21T01:21:38.944Z,9.63
2018-12-21T01:22:37.204Z,9.66
2018-12-21T01:23:37.218Z,9.73
2018-12-21T01:24:37.254Z,9.67
2018-12-21T01:25:37.247Z,9.76
2018-12-21T01:26:37.263Z,9.75
2018-12-21T01:27:37.273Z,9.63
2018-12-21T01:28:37.283Z,9.75
2018-12-21T01:29:37.304Z,9.71
2018-12-21T01:30:37.314Z,9.73
2018-12-21T01:31:37.325Z,9.68
2018-12-21T01:32:37.343Z,9.66
2018-12-21T01:33:37.354Z,9.58
2018-12-21T01:34:37.373Z,9.70
2018-12-21T01:35:37.386Z,9.68
2018-12-21T01:36:37.406Z,9.66
2018-12-21T01:37:37.410Z,9.61
2018-12-21T01:38:37.427Z,9.67
2018-12-21T01:39:37.438Z,9.67
2018-12-21T01:40:37.457Z,9.70
2018-12-21T01:41:37.464Z,9.61
2018-12-21T01:42:37.486Z,9.56
2018-12-21T01:43:37.498Z,9.71
2018-12-21T01:44:37.509Z,9.60
2018-12-21T01:45:37.523Z,9.64
2018-12-21T01:46:37.618Z,9.76
2018-12-21T01:47:37.551Z,9.63
2018-12-21T01:48:37.562Z,9.71
2018-12-21T01:49:37.578Z,9.71
2018-12-21T01:50:37.591Z,9.71
2018-12-21T01:51:37.606Z,9.70
2018-12-21T01:52:37.621Z,9.63
2018-12-21T01:53:37.631Z,9.70
2018-12-21T01:54:37.654Z,9.73
2018-12-21T01:55:37.667Z,9.75
2018-12-21T01:56:37.680Z,9.60
2018-12-21T01:57:37.692Z,9.60
2018-12-21T01:58:37.702Z,9.58
2018-12-21T01:59:37.715Z,9.58
2018-12-21T02:00:37.730Z,9.60
2018-12-21T02:01:37.743Z,9.57
2018-12-21T02:02:37.760Z,9.60
2018-12-21T02:03:37.776Z,9.64
2018-12-21T02:04:37.787Z,9.56
2018-12-21T02:05:37.799Z,9.45
2018-12-21T02:06:37.823Z,9.46
2018-12-21T02:07:37.829Z,9.45
2018-12-21T02:08:37.846Z,9.46
2018-12-21T02:09:37.857Z,9.42
2018-12-21T02:10:37.869Z,9.45
2018-12-21T02:11:37.887Z,9.52
2018-12-21T02:12:37.900Z,9.48
2018-12-21T02:13:37.910Z,9.52
2018-12-21T02:14:37.925Z,9.52
2018-12-21T02:15:37.940Z,9.53
2018-12-21T02:16:37.955Z,9.53
2018-12-21T02:17:37.967Z,9.60
2018-12-21T02:18:37.982Z,9.60
2018-12-21T02:19:37.997Z,9.60
2018-12-21T02:20:38.047Z,9.61
2018-12-21T02:21:38.094Z,9.56
2018-12-21T02:22:38.041Z,9.64
2018-12-21T02:23:38.050Z,9.56
2018-12-21T02:24:38.065Z,9.63
2018-12-21T02:25:38.079Z,9.61
2018-12-21T02:26:38.096Z,9.60
2018-12-21T02:27:38.106Z,9.70
2018-12-21T02:28:38.117Z,9.75
2018-12-21T02:29:38.137Z,9.76
2018-12-21T02:30:38.145Z,9.73
2018-12-21T02:31:38.160Z,9.71
2018-12-21T02:32:38.181Z,9.79
2018-12-21T02:33:38.191Z,9.76
2018-12-21T02:34:38.204Z,9.73
2018-12-21T02:35:38.216Z,9.68
2018-12-21T02:36:38.235Z,9.75
2018-12-21T02:37:38.243Z,9.78
2018-12-21T02:38:38.261Z,9.76
2018-12-21T02:39:38.300Z,9.79
2018-12-21T02:40:38.303Z,9.78
2018-12-21T02:41:38.303Z,9.85
2018-12-21T02:42:38.312Z,9.79
2018-12-21T02:43:38.327Z,9.71
2018-12-21T02:44:38.340Z,9.73
2018-12-21T02:45:38.360Z,9.76
2018-12-21T02:46:38.370Z,9.75
2018-12-21T02:47:38.392Z,9.82
2018-12-21T02:48:38.398Z,9.89
2018-12-21T02:49:38.412Z,9.81
2018-12-21T02:50:38.431Z,9.88
2018-12-21T02:51:38.435Z,9.82
2018-12-21T02:52:38.455Z,9.88
2018-12-21T02:53:38.480Z,9.81
2018-12-21T02:54:38.478Z,9.93
2018-12-21T02:55:38.516Z,9.93
2018-12-21T02:56:38.515Z,9.91
2018-12-21T02:57:38.521Z,9.86
2018-12-21T02:58:38.533Z,9.81
2018-12-21T02:59:38.551Z,9.79
2018-12-21T03:00:38.564Z,9.88
2018-12-21T03:01:38.580Z,9.81
2018-12-21T03:02:38.589Z,9.78
2018-12-21T03:03:38.607Z,9.85
2018-12-21T03:04:38.627Z,9.79
2018-12-21T03:05:38.634Z,9.83
2018-12-21T03:06:38.660Z,9.75
2018-12-21T03:07:38.665Z,9.86
2018-12-21T03:08:38.671Z,9.82
2018-12-21T03:38:07.098Z,10.07
2018-12-21T03:39:06.897Z,10.04
2018-12-21T03:40:58.833Z,10.04
2018-12-21T03:41:58.813Z,10.04
2018-12-21T03:43:50.720Z,10.03
2018-12-21T03:44:50.724Z,10.07
2018-12-21T03:46:42.655Z,10.18
2018-12-21T03:47:42.638Z,10.15
2018-12-21T03:49:34.540Z,10.10
2018-12-21T03:50:34.541Z,10.10
2018-12-21T03:52:26.467Z,10.21
2018-12-21T03:53:26.453Z,10.18
2018-12-21T03:55:18.375Z,10.19
2018-12-21T03:56:18.365Z,10.22
2018-12-21T03:58:10.290Z,10.24
2018-12-21T03:59:10.302Z,10.24
2018-12-21T04:01:02.229Z,10.21
2018-12-21T04:02:02.309Z,10.21
2018-12-21T04:03:54.123Z,10.19
2018-12-21T04:04:54.124Z,10.18
2018-12-21T04:06:46.048Z,10.21
2018-12-21T04:07:46.036Z,10.17
2018-12-21T04:09:37.941Z,10.33
2018-12-21T04:10:37.958Z,10.34
2018-12-21T04:12:29.887Z,10.32
2018-12-21T04:13:29.869Z,10.30
2018-12-21T04:15:21.807Z,10.36
2018-12-21T04:16:21.795Z,10.33
2018-12-21T04:18:13.715Z,10.36
2018-12-21T04:19:13.720Z,10.39
2018-12-21T04:21:05.777Z,10.28
2018-12-21T04:22:05.639Z,10.33
2018-12-21T04:23:57.558Z,10.32
2018-12-21T04:24:57.656Z,10.33
2018-12-21T04:26:49.494Z,10.04
2018-12-21T04:27:49.473Z,10.07
2018-12-21T04:29:41.873Z,9.94
2018-12-21T04:30:41.884Z,9.91
2018-12-21T04:32:33.818Z,9.89
2018-12-21T04:33:33.803Z,9.79
2018-12-21T04:35:25.729Z,9.85
2018-12-21T04:36:25.719Z,9.88
2018-12-21T04:38:17.745Z,9.83
2018-12-21T04:39:17.626Z,9.71
2018-12-21T04:41:09.600Z,9.81
2018-12-21T04:42:09.549Z,9.79
2018-12-21T04:44:01.451Z,9.73
2018-12-21T04:45:01.455Z,9.76
2018-12-21T04:46:53.393Z,9.81
2018-12-21T04:47:53.373Z,9.83
2018-12-21T04:49:45.281Z,9.78
2018-12-21T04:50:45.292Z,9.76
2018-12-21T04:52:43.169Z,9.78
2018-12-21T04:53:37.202Z,9.76
2018-12-21T04:55:29.131Z,9.66
2018-12-21T04:56:29.123Z,9.76
2018-12-21T04:58:21.048Z,9.73
2018-12-21T04:59:21.056Z,9.70
2018-12-21T05:01:12.994Z,9.75
2018-12-21T05:02:12.981Z,9.71
2018-12-21T05:04:05.380Z,9.70
2018-12-21T05:05:05.396Z,9.76
2018-12-21T05:06:57.330Z,9.76
2018-12-21T05:07:57.311Z,9.78
2018-12-21T05:09:49.238Z,9.58
2018-12-21T05:10:49.245Z,9.60
2018-12-21T05:12:41.177Z,9.67
2018-12-21T05:13:41.160Z,9.61
2018-12-21T05:15:33.092Z,9.63
2018-12-21T05:16:33.082Z,9.64
2018-12-21T05:18:24.989Z,9.63
2018-12-21T05:19:24.996Z,9.56
2018-12-21T05:21:16.961Z,9.71
2018-12-21T05:22:16.943Z,9.60
2018-12-21T05:24:08.901Z,9.63
2018-12-21T05:25:08.854Z,9.61
2018-12-21T05:27:00.783Z,9.63
2018-12-21T05:28:00.772Z,9.52
2018-12-21T05:29:52.686Z,9.56
2018-12-21T05:30:52.692Z,9.57
2018-12-21T05:32:44.616Z,9.63
2018-12-21T05:33:44.604Z,9.61
2018-12-21T05:35:36.526Z,9.39
2018-12-21T05:36:36.532Z,9.53
2018-12-21T05:38:28.472Z,9.48
2018-12-21T05:39:28.457Z,9.40
2018-12-21T05:41:20.387Z,9.39
2018-12-21T05:42:20.369Z,9.48
2018-12-21T05:44:12.278Z,9.43
2018-12-21T05:45:12.289Z,9.35
2018-12-21T05:47:04.222Z,9.40
2018-12-21T05:48:04.200Z,9.28
2018-12-21T05:49:56.123Z,9.39
2018-12-21T05:50:56.133Z,9.40
2018-12-21T05:52:48.105Z,9.42
2018-12-21T05:53:48.051Z,9.56
2018-12-21T05:55:39.964Z,9.50
2018-12-21T05:56:39.967Z,9.50
2018-12-21T05:58:31.909Z,9.64
2018-12-21T05:59:31.894Z,9.61
2018-12-21T06:01:23.799Z,9.58
2018-12-21T06:02:23.805Z,9.42
2018-12-21T06:04:15.737Z,9.43
2018-12-21T06:05:15.724Z,9.49
2018-12-21T06:07:07.656Z,9.49
2018-12-21T06:08:07.640Z,9.50
2018-12-21T06:09:59.561Z,9.61
2018-12-21T06:10:59.548Z,9.60
2018-12-21T06:12:51.475Z,9.43
2018-12-21T06:13:51.468Z,9.56
2018-12-21T06:15:43.402Z,9.58
2018-12-21T06:16:43.380Z,9.53
2018-12-21T06:18:35.806Z,9.52
2018-12-21T06:19:35.798Z,9.66
2018-12-21T06:21:27.704Z,9.70
2018-12-21T06:22:27.706Z,9.71
2018-12-21T06:24:19.635Z,9.68
2018-12-21T06:25:19.622Z,9.70
2018-12-21T06:27:11.533Z,9.76
2018-12-21T06:28:11.541Z,9.68
2018-12-21T06:30:03.482Z,9.76
2018-12-21T06:31:03.468Z,9.71
2018-12-21T06:32:55.406Z,9.75
2018-12-21T06:33:55.400Z,9.78
2018-12-21T06:35:47.322Z,9.78
2018-12-21T06:36:47.331Z,9.85
2018-12-21T06:38:39.283Z,9.91
2018-12-21T06:39:39.267Z,9.82
2018-12-21T06:41:31.177Z,9.75
2018-12-21T06:42:31.188Z,9.73
2018-12-21T06:44:23.119Z,9.86
2018-12-21T06:45:23.109Z,9.86
2018-12-21T06:47:15.011Z,10.00
2018-12-21T06:48:15.015Z,10.03
2018-12-21T06:50:07.495Z,10.00
2018-12-21T06:51:07.425Z,9.88
2018-12-21T06:52:59.356Z,9.96
2018-12-21T06:53:59.343Z,9.94
2018-12-21T06:55:51.260Z,10.00
2018-12-21T06:56:51.268Z,10.01
2018-12-21T06:58:43.192Z,10.04
2018-12-21T06:59:43.179Z,10.17
2018-12-21T07:01:35.086Z,10.18
2018-12-21T07:02:35.094Z,10.15
2018-12-21T07:04:27.034Z,10.22
2018-12-21T07:05:27.012Z,10.15
2018-12-21T07:07:18.935Z,10.17
2018-12-21T07:08:18.941Z,10.24
2018-12-21T07:10:10.874Z,10.19
2018-12-21T07:11:10.864Z,10.25
2018-12-21T07:13:02.809Z,10.30
2018-12-21T07:14:02.802Z,10.28
2018-12-21T07:15:54.743Z,10.32
2018-12-21T07:16:54.749Z,10.26
2018-12-21T07:18:46.738Z,10.40
2018-12-21T07:19:46.697Z,10.34
2018-12-21T07:21:38.604Z,10.28
2018-12-21T07:22:38.624Z,10.42
2018-12-21T07:24:30.546Z,10.40
2018-12-21T07:25:30.532Z,10.36
2018-12-21T07:27:22.439Z,10.44
2018-12-21T07:28:22.447Z,10.43
2018-12-21T07:30:14.375Z,10.42
2018-12-21T07:31:14.363Z,10.43
2018-12-21T07:33:06.302Z,10.42
2018-12-21T07:34:06.321Z,10.51
2018-12-21T07:35:58.241Z,10.51
2018-12-21T07:36:58.223Z,10.47
2018-12-21T07:38:50.155Z,10.56
2018-12-21T07:39:50.145Z,10.51
2018-12-21T07:41:42.072Z,10.53
2018-12-21T07:42:42.058Z,10.53
2018-12-21T07:44:33.995Z,10.51
2018-12-21T07:45:33.972Z,10.52
2018-12-21T07:47:25.897Z,10.51
2018-12-21T07:48:25.903Z,10.55
2018-12-21T07:50:17.834Z,10.60
2018-12-21T07:51:17.819Z,10.60
2018-12-21T07:53:09.746Z,10.60
2018-12-21T07:54:09.740Z,10.65
2018-12-21T07:56:01.700Z,10.70
2018-12-21T07:57:01.663Z,10.63
2018-12-21T07:58:57.346Z,10.62
2018-12-21T07:59:53.572Z,10.62
2018-12-21T08:01:45.503Z,10.74
2018-12-21T08:02:45.523Z,10.76
2018-12-21T08:04:37.453Z,10.78
2018-12-21T08:05:37.438Z,10.68
2018-12-21T08:07:29.356Z,10.78
2018-12-21T08:08:29.370Z,10.78
2018-12-21T08:10:21.288Z,10.76
2018-12-21T08:11:21.282Z,10.77
2018-12-21T08:13:16.187Z,10.83
2018-12-21T08:14:16.196Z,10.83
2018-12-21T08:16:08.131Z,10.86
2018-12-21T08:17:08.113Z,10.80
2018-12-21T08:19:00.560Z,10.84
2018-12-21T08:20:00.541Z,10.77
2018-12-21T08:21:52.493Z,10.83
2018-12-21T08:22:52.460Z,10.91
2018-12-21T08:24:44.871Z,10.84
2018-12-21T08:25:44.867Z,10.83
2018-12-21T08:27:36.776Z,10.78
2018-12-21T08:28:36.779Z,10.78
2018-12-21T08:30:28.716Z,10.88
2018-12-21T08:31:28.712Z,10.86
2018-12-21T08:33:21.191Z,10.88
2018-12-21T08:34:21.170Z,10.89
2018-12-21T08:36:13.621Z,10.91
2018-12-21T08:37:13.589Z,10.94
2018-12-21T08:38:13.600Z,10.96
2018-12-21T08:39:13.611Z,10.89
2018-12-21T08:40:13.627Z,10.92
2018-12-21T08:41:13.635Z,10.98
2018-12-21T08:42:13.654Z,10.92
2018-12-21T08:43:13.677Z,10.98
2018-12-21T08:44:13.681Z,10.99
2018-12-21T08:45:13.699Z,10.94
2018-12-21T08:46:13.707Z,10.98
2018-12-21T08:47:13.740Z,11.02
2018-12-21T08:48:13.746Z,10.95
2018-12-21T08:49:13.753Z,10.95
2018-12-21T08:50:13.769Z,10.99
2018-12-21T08:51:13.783Z,10.92
2018-12-21T08:52:13.793Z,10.99
2018-12-21T08:53:13.809Z,10.96
2018-12-21T08:54:13.825Z,10.98
2018-12-21T08:55:13.837Z,10.98
2018-12-21T08:56:13.855Z,10.95
2018-12-21T08:57:13.885Z,11.06
2018-12-21T08:58:13.881Z,10.98
2018-12-21T08:59:13.901Z,10.95
2018-12-21T09:00:13.927Z,11.06
2018-12-21T09:01:13.926Z,10.98
2018-12-21T09:02:13.939Z,11.03
2018-12-21T09:03:13.956Z,10.99
2018-12-21T09:04:13.971Z,11.03
2018-12-21T09:05:13.990Z,11.10
2018-12-21T09:06:18.447Z,11.13
2018-12-21T09:07:14.016Z,11.16
2018-12-21T09:08:14.034Z,11.10
2018-12-21T09:09:14.046Z,11.09
2018-12-21T09:10:14.054Z,11.09
2018-12-21T09:11:14.073Z,11.19
2018-12-21T09:12:14.085Z,11.16
2018-12-21T09:13:14.100Z,11.07
2018-12-21T09:14:14.116Z,11.20
2018-12-21T09:15:14.132Z,11.25
2018-12-21T09:16:14.148Z,11.28
2018-12-21T09:17:14.163Z,11.19
2018-12-21T09:18:14.179Z,11.19
2018-12-21T09:19:14.185Z,11.25
2018-12-21T09:20:14.226Z,11.28
2018-12-21T09:21:14.214Z,11.25
2018-12-21T09:22:14.229Z,11.31
2018-12-21T09:23:14.249Z,11.28
2018-12-21T09:24:14.259Z,11.20
2018-12-21T09:25:14.274Z,11.21
2018-12-21T09:26:14.301Z,11.43
2018-12-21T09:27:14.310Z,11.34
2018-12-21T09:28:14.318Z,11.34
2018-12-21T09:29:14.339Z,11.41
2018-12-21T09:30:14.344Z,11.39
2018-12-21T09:31:14.364Z,11.39
2018-12-21T09:32:14.377Z,11.53
2018-12-21T09:33:14.392Z,11.56
2018-12-21T09:34:14.407Z,11.49
2018-12-21T09:35:14.421Z,11.52
2018-12-21T09:36:14.439Z,11.56
2018-12-21T09:37:14.449Z,11.71
2018-12-21T09:38:14.470Z,11.70
2018-12-21T09:39:14.477Z,11.67
2018-12-21T09:40:14.494Z,11.71
2018-12-21T09:41:14.508Z,11.80
2018-12-21T09:42:14.522Z,11.77
2018-12-21T09:43:14.538Z,11.77
2018-12-21T09:44:14.553Z,11.82
2018-12-21T09:45:14.571Z,11.78
2018-12-21T09:46:14.593Z,11.86
2018-12-21T09:47:14.599Z,11.80
2018-12-21T09:48:14.609Z,11.82
2018-12-21T09:49:14.630Z,11.89
2018-12-21T09:50:14.641Z,11.96
2018-12-21T09:51:14.676Z,11.94
2018-12-21T09:52:14.682Z,11.96
2018-12-21T09:53:14.685Z,12.05
2018-12-21T09:54:14.701Z,12.04
2018-12-21T09:55:14.714Z,11.99
2018-12-21T09:56:14.753Z,11.99
2018-12-21T09:57:14.754Z,12.11
2018-12-21T09:58:14.763Z,12.12
2018-12-21T09:59:14.785Z,12.11
2018-12-21T10:00:14.807Z,12.11
2018-12-21T10:01:14.809Z,12.16
2018-12-21T10:02:14.836Z,12.11
2018-12-21T10:03:14.847Z,12.20
2018-12-21T10:04:14.854Z,12.21
2018-12-21T10:05:14.887Z,12.21
2018-12-21T10:06:14.878Z,12.23
2018-12-21T10:07:14.895Z,12.24
2018-12-21T10:08:14.913Z,12.37
2018-12-21T10:09:15.023Z,12.34
2018-12-21T10:10:14.942Z,12.27
2018-12-21T10:11:14.955Z,12.37
2018-12-21T10:12:14.970Z,12.33
2018-12-21T10:13:14.989Z,12.38
2018-12-21T10:14:15.006Z,12.31
2018-12-21T10:15:15.014Z,12.37
2018-12-21T10:16:15.035Z,12.44
2018-12-21T10:17:15.045Z,12.44
2018-12-21T10:18:15.062Z,12.39
2018-12-21T10:19:15.077Z,12.44
2018-12-21T10:20:15.104Z,12.45
2018-12-21T10:21:15.109Z,12.45
2018-12-21T10:22:15.124Z,12.48
2018-12-21T10:23:15.142Z,12.44
2018-12-21T10:24:18.669Z,12.46
2018-12-21T10:25:15.173Z,12.39
2018-12-21T10:26:15.182Z,12.49
2018-12-21T10:27:15.202Z,12.52
2018-12-21T10:28:15.219Z,12.51
2018-12-21T10:29:15.228Z,12.51
2018-12-21T10:30:15.246Z,12.52
2018-12-21T10:31:15.261Z,12.64
2018-12-21T10:32:15.275Z,12.57
2018-12-21T10:33:15.294Z,12.45
2018-12-21T10:34:15.308Z,12.56
2018-12-21T10:35:15.323Z,12.66
2018-12-21T10:36:15.337Z,12.63
2018-12-21T10:37:16.791Z,12.54
2018-12-21T10:38:15.366Z,12.64
2018-12-21T10:39:15.390Z,12.70
2018-12-21T10:40:15.396Z,12.77
2018-12-21T10:41:15.415Z,12.62
2018-12-21T10:42:15.432Z,12.70
2018-12-21T10:43:15.445Z,12.75
2018-12-21T10:44:15.473Z,12.82
2018-12-21T10:45:15.479Z,12.77
2018-12-21T10:46:15.492Z,12.79
2018-12-21T10:47:15.509Z,12.82
2018-12-21T10:48:15.524Z,12.75
2018-12-21T10:49:15.542Z,12.92
2018-12-21T10:50:15.552Z,12.79
2018-12-21T10:51:15.569Z,12.87
2018-12-21T10:52:15.586Z,12.89
2018-12-21T10:53:15.603Z,12.97
2018-12-21T10:54:15.611Z,13.02
2018-12-21T10:55:15.628Z,13.03
2018-12-21T10:56:15.646Z,12.99
2018-12-21T10:57:15.664Z,13.06
2018-12-21T10:58:15.690Z,12.96
2018-12-21T10:59:21.051Z,13.04
2018-12-21T11:00:15.707Z,12.99
2018-12-21T11:01:15.725Z,13.00
2018-12-21T11:02:15.741Z,12.99
2018-12-21T11:03:15.759Z,13.06
2018-12-21T11:04:15.775Z,13.03
2018-12-21T11:05:15.790Z,13.12
2018-12-21T11:06:15.822Z,13.09
2018-12-21T11:07:15.825Z,13.09
2018-12-21T11:08:15.857Z,13.20
2018-12-21T11:09:15.852Z,13.20
2018-12-21T11:10:15.867Z,13.21
2018-12-21T11:11:15.883Z,13.25
2018-12-21T11:12:15.902Z,13.38
2018-12-21T11:13:15.925Z,13.36
2018-12-21T11:14:15.929Z,13.41
2018-12-21T11:15:15.948Z,13.47
2018-12-21T11:16:15.962Z,13.55
2018-12-21T11:17:15.980Z,13.59
2018-12-21T11:18:15.998Z,13.56
2018-12-21T11:19:16.012Z,13.55
2018-12-21T11:20:16.027Z,13.63
2018-12-21T11:21:16.053Z,13.67
2018-12-21T11:22:16.060Z,13.69
2018-12-21T11:23:16.074Z,13.70
2018-12-21T11:24:16.097Z,13.73
2018-12-21T11:25:16.110Z,13.79
2018-12-21T11:26:16.123Z,13.74
2018-12-21T11:27:16.139Z,13.79
2018-12-21T11:28:16.161Z,13.84
2018-12-21T11:29:16.201Z,14.01
2018-12-21T11:30:16.186Z,13.96
2018-12-21T11:31:16.203Z,13.99
2018-12-21T11:32:16.221Z,13.96
2018-12-21T11:33:16.235Z,13.99
2018-12-21T11:34:16.250Z,14.04
2018-12-21T11:35:16.271Z,14.01
2018-12-21T11:36:16.285Z,13.96
2018-12-21T11:37:16.299Z,14.01
2018-12-21T11:38:16.316Z,14.06
2018-12-21T11:39:16.335Z,14.07
2018-12-21T11:40:16.351Z,14.09
2018-12-21T11:41:16.366Z,14.16
2018-12-21T11:42:16.381Z,14.16
2018-12-21T11:43:16.413Z,14.16
2018-12-21T11:44:16.419Z,14.27
2018-12-21T11:45:16.432Z,14.14
2018-12-21T11:46:16.447Z,14.24
2018-12-21T11:47:16.487Z,14.20
2018-12-21T11:48:16.491Z,14.24
2018-12-21T11:49:16.496Z,14.16
2018-12-21T11:50:16.517Z,14.17
2018-12-21T11:51:16.536Z,14.21
2018-12-21T11:52:16.549Z,14.19
2018-12-21T11:53:16.564Z,14.16
2018-12-21T11:54:16.579Z,14.20
2018-12-21T11:55:16.597Z,14.17
2018-12-21T11:56:16.661Z,14.10
2018-12-21T11:57:16.644Z,14.07
2018-12-21T11:58:16.650Z,14.21
2018-12-21T11:59:16.664Z,14.13
2018-12-21T12:00:16.690Z,14.14
2018-12-21T12:01:16.699Z,14.17
2018-12-21T12:02:19.700Z,14.21
2018-12-21T12:03:16.736Z,14.19
2018-12-21T12:04:16.747Z,14.20
2018-12-21T12:05:16.766Z,14.21
2018-12-21T12:06:16.811Z,14.24
2018-12-21T12:07:16.801Z,14.21
2018-12-21T12:08:16.818Z,14.21
2018-12-21T12:09:16.830Z,14.27
2018-12-21T12:10:16.848Z,14.14
2018-12-21T12:11:16.870Z,14.13
2018-12-21T12:12:16.881Z,14.19
2018-12-21T12:13:16.906Z,14.13
2018-12-21T12:14:16.914Z,14.17
2018-12-21T12:15:16.932Z,14.25
2018-12-21T12:16:16.945Z,14.16
2018-12-21T12:17:16.967Z,14.32
2018-12-21T12:18:16.978Z,14.35
2018-12-21T12:19:16.992Z,14.20
2018-12-21T12:20:17.017Z,14.27
2018-12-21T12:21:17.034Z,14.32
2018-12-21T12:22:17.043Z,14.24
2018-12-21T12:23:17.070Z,14.29
2018-12-21T12:24:17.080Z,14.29
2018-12-21T12:25:17.092Z,14.31
2018-12-21T12:26:17.109Z,14.28
2018-12-21T12:27:17.132Z,14.35
2018-12-21T12:28:17.146Z,14.43
2018-12-21T12:29:17.162Z,14.38
2018-12-21T12:30:17.191Z,14.39
2018-12-21T12:31:17.196Z,14.43
2018-12-21T12:32:17.220Z,14.49
2018-12-21T12:33:17.250Z,14.39
2018-12-21T12:34:17.249Z,14.50
2018-12-21T12:35:17.261Z,14.44
2018-12-21T12:36:17.321Z,14.53
2018-12-21T12:37:17.307Z,14.60
2018-12-21T12:38:17.310Z,14.49
2018-12-21T12:39:17.334Z,14.49
2018-12-21T12:40:17.356Z,14.52
2018-12-21T12:41:17.398Z,14.46
2018-12-21T12:42:17.378Z,14.52
2018-12-21T12:43:17.398Z,14.49
2018-12-21T12:44:17.415Z,14.43
2018-12-21T12:45:17.431Z,14.46
2018-12-21T12:46:17.452Z,14.46
2018-12-21T12:47:17.464Z,14.46
2018-12-21T12:48:17.485Z,14.42
2018-12-21T12:49:17.501Z,14.49
2018-12-21T12:50:17.520Z,14.44
2018-12-21T12:51:17.532Z,14.35
2018-12-21T12:52:17.552Z,14.37
2018-12-21T12:53:17.573Z,14.39
2018-12-21T12:54:17.588Z,14.37
2018-12-21T12:55:17.599Z,14.35
2018-12-21T12:56:17.624Z,14.39
2018-12-21T12:57:17.637Z,14.37
2018-12-21T12:58:17.676Z,14.34
2018-12-21T12:59:17.670Z,14.37
2018-12-21T13:00:17.689Z,14.46
2018-12-21T13:01:17.706Z,14.31
2018-12-21T13:02:17.717Z,14.42
2018-12-21T13:03:17.794Z,14.42
2018-12-21T13:04:17.755Z,14.39
2018-12-21T13:05:17.771Z,14.37
2018-12-21T13:06:17.786Z,14.35
2018-12-21T13:07:17.800Z,14.32
2018-12-21T13:08:17.819Z,14.35
2018-12-21T13:09:17.839Z,14.35
2018-12-21T13:10:17.858Z,14.44
2018-12-21T13:11:17.873Z,14.43
2018-12-21T13:12:17.888Z,14.35
2018-12-21T13:13:17.936Z,14.34
2018-12-21T13:14:17.924Z,14.27
2018-12-21T13:15:17.940Z,14.34
2018-12-21T13:16:17.957Z,14.29
2018-12-21T13:17:17.971Z,14.29
2018-12-21T13:18:17.990Z,14.35
2018-12-21T13:19:18.004Z,14.42
2018-12-21T13:20:18.024Z,14.28
2018-12-21T13:21:18.156Z,14.28
2018-12-21T13:22:18.056Z,14.39
2018-12-21T13:23:18.075Z,14.37
2018-12-21T13:24:18.092Z,14.35
2018-12-21T13:25:18.110Z,14.28
2018-12-21T13:26:18.124Z,14.28
2018-12-21T13:27:18.149Z,14.28
2018-12-21T13:28:18.165Z,14.24
2018-12-21T13:29:18.176Z,14.17
2018-12-21T13:30:18.198Z,14.20
2018-12-21T13:31:18.209Z,14.20
2018-12-21T13:32:18.225Z,14.01
2018-12-21T13:33:18.246Z,14.04
2018-12-21T13:34:18.264Z,14.17
2018-12-21T13:35:18.276Z,14.13
2018-12-21T13:36:18.296Z,14.19
2018-12-21T13:37:18.309Z,14.14
2018-12-21T13:38:18.329Z,14.16
2018-12-21T13:39:18.345Z,14.13
2018-12-21T13:40:18.368Z,14.09
2018-12-21T13:41:18.377Z,14.10
2018-12-21T13:42:18.417Z,14.07
2018-12-21T13:43:18.410Z,14.04
2018-12-21T13:44:18.430Z,14.04
2018-12-21T13:45:18.453Z,13.95
2018-12-21T13:46:18.459Z,13.99
2018-12-21T13:47:18.476Z,13.91
2018-12-21T13:48:18.494Z,13.95
2018-12-21T13:49:18.511Z,14.02
2018-12-21T13:50:18.532Z,14.01
2018-12-21T13:51:18.545Z,14.06
2018-12-21T13:52:18.563Z,14.01
2018-12-21T13:53:18.578Z,14.01
2018-12-21T13:54:18.598Z,13.99
2018-12-21T13:55:20.607Z,13.98
2018-12-21T13:56:18.628Z,13.98
2018-12-21T13:57:18.647Z,13.87
2018-12-21T13:58:18.663Z,13.88
2018-12-21T13:59:18.675Z,13.84
2018-12-21T14:00:18.699Z,13.87
2018-12-21T14:01:18.727Z,13.87
2018-12-21T14:02:18.735Z,13.84
2018-12-21T14:03:18.747Z,13.96
2018-12-21T14:04:18.756Z,13.88
2018-12-21T14:05:18.775Z,13.80
2018-12-21T14:06:18.798Z,13.87
2018-12-21T14:07:18.806Z,13.87
2018-12-21T14:08:18.827Z,13.80
2018-12-21T14:09:18.841Z,13.77
2018-12-21T14:10:18.859Z,13.79
2018-12-21T14:11:18.898Z,13.80
2018-12-21T14:12:18.893Z,13.77
2018-12-21T14:13:18.911Z,13.73
2018-12-21T14:14:18.941Z,13.76
2018-12-21T14:15:18.945Z,13.76
2018-12-21T14:16:18.970Z,13.79
2018-12-21T14:17:18.974Z,13.77
2018-12-21T14:18:18.989Z,13.73
2018-12-21T14:19:19.006Z,13.77
2018-12-21T14:20:19.024Z,13.77
2018-12-21T14:21:19.039Z,13.65
2018-12-21T14:22:19.066Z,13.69
2018-12-21T14:23:19.087Z,13.76
2018-12-21T14:24:19.094Z,13.76
2018-12-21T14:25:19.106Z,13.71
2018-12-21T14:26:19.141Z,13.73
2018-12-21T14:27:19.139Z,13.58
2018-12-21T14:28:19.152Z,13.71
2018-12-21T14:29:19.169Z,13.65
2018-12-21T14:30:19.184Z,13.69
2018-12-21T14:31:19.206Z,13.63
2018-12-21T14:32:19.229Z,13.65
2018-12-21T14:33:19.236Z,13.71
2018-12-21T14:34:19.252Z,13.70
2018-12-21T14:35:19.275Z,13.70
2018-12-21T14:36:20.890Z,13.63
2018-12-21T14:37:19.302Z,13.58
2018-12-21T14:38:19.311Z,13.67
2018-12-21T14:39:19.333Z,13.63
2018-12-21T14:40:19.354Z,13.69
2018-12-21T14:41:19.371Z,13.69
2018-12-21T14:42:19.384Z,13.71
2018-12-21T14:43:19.400Z,13.65
2018-12-21T14:44:19.414Z,13.71
2018-12-21T14:45:19.467Z,13.73
2018-12-21T14:46:19.444Z,13.61
2018-12-21T14:47:19.464Z,13.63
2018-12-21T14:48:19.476Z,13.58
2018-12-21T14:49:19.495Z,13.56
2018-12-21T14:50:19.511Z,13.56
2018-12-21T14:51:19.522Z,13.54
2018-12-21T14:52:19.542Z,13.55
2018-12-21T14:53:19.559Z,13.55
2018-12-21T14:54:19.575Z,13.47
2018-12-21T14:55:19.590Z,13.47
2018-12-21T14:56:19.605Z,13.43
2018-12-21T14:57:19.731Z,13.43
2018-12-21T14:58:19.655Z,13.47
2018-12-21T14:59:19.660Z,13.43
2018-12-21T15:00:19.673Z,13.46